sensor_id;sensor_type;location;lat;lon;timestamp;temperature;humidity
10538;DHT22;5317;49.048;8.468;2023-08-30T00:01:59;20.10;83.10
10538;DHT22;5317;49.048;8.468;2023-08-30T00:04:26;20.00;83.90
10538;DHT22;5317;49.048;8.468;2023-08-30T00:06:53;20.00;83.20
10538;DHT22;5317;49.048;8.468;2023-08-30T00:09:20;20.00;83.20
10538;DHT22;5317;49.048;8.468;2023-08-30T00:11:46;20.00;83.20
10538;DHT22;5317;49.048;8.468;2023-08-30T00:14:15;20.00;83.20
10538;DHT22;5317;49.048;8.468;2023-08-30T00:16:41;20.00;83.20
10538;DHT22;5317;49.048;8.468;2023-08-30T00:19:08;20.00;83.20
10538;DHT22;5317;49.048;8.468;2023-08-30T00:21:35;20.00;83.20
10538;DHT22;5317;49.048;8.468;2023-08-30T00:24:02;20.00;83.20
10538;DHT22;5317;49.048;8.468;2023-08-30T00:26:29;20.00;83.20
10538;DHT22;5317;49.048;8.468;2023-08-30T00:28:56;20.00;83.20
10538;DHT22;5317;49.048;8.468;2023-08-30T00:31:24;20.00;83.20
10538;DHT22;5317;49.048;8.468;2023-08-30T00:33:51;20.00;83.20
10538;DHT22;5317;49.048;8.468;2023-08-30T00:36:18;20.00;83.30
10538;DHT22;5317;49.048;8.468;2023-08-30T00:38:46;19.90;83.80
10538;DHT22;5317;49.048;8.468;2023-08-30T00:41:12;19.90;83.50
10538;DHT22;5317;49.048;8.468;2023-08-30T00:43:39;19.80;83.60
10538;DHT22;5317;49.048;8.468;2023-08-30T00:46:06;19.80;83.80
10538;DHT22;5317;49.048;8.468;2023-08-30T00:48:34;19.80;83.90
10538;DHT22;5317;49.048;8.468;2023-08-30T00:51:01;19.80;83.70
10538;DHT22;5317;49.048;8.468;2023-08-30T00:53:28;19.90;83.70
10538;DHT22;5317;49.048;8.468;2023-08-30T00:55:55;19.90;83.70
10538;DHT22;5317;49.048;8.468;2023-08-30T00:58:22;19.90;83.70
10538;DHT22;5317;49.048;8.468;2023-08-30T01:00:52;19.90;83.60
10538;DHT22;5317;49.048;8.468;2023-08-30T01:03:20;19.90;83.50
10538;DHT22;5317;49.048;8.468;2023-08-30T01:05:49;19.90;83.60
10538;DHT22;5317;49.048;8.468;2023-08-30T01:08:16;19.90;83.60
10538;DHT22;5317;49.048;8.468;2023-08-30T01:10:51;19.80;83.40
10538;DHT22;5317;49.048;8.468;2023-08-30T01:13:20;19.80;84.40
10538;DHT22;5317;49.048;8.468;2023-08-30T01:15:48;19.80;83.70
10538;DHT22;5317;49.048;8.468;2023-08-30T01:18:17;19.70;83.60
10538;DHT22;5317;49.048;8.468;2023-08-30T01:20:45;19.80;83.90
10538;DHT22;5317;49.048;8.468;2023-08-30T01:23:22;19.70;83.90
10538;DHT22;5317;49.048;8.468;2023-08-30T01:25:57;19.70;84.00
10538;DHT22;5317;49.048;8.468;2023-08-30T01:28:31;19.70;84.10
10538;DHT22;5317;49.048;8.468;2023-08-30T01:30:59;19.70;84.00
10538;DHT22;5317;49.048;8.468;2023-08-30T01:33:27;19.70;84.10
10538;DHT22;5317;49.048;8.468;2023-08-30T01:35:55;19.70;84.10
10538;DHT22;5317;49.048;8.468;2023-08-30T01:38:24;19.70;84.10
10538;DHT22;5317;49.048;8.468;2023-08-30T01:40:53;19.70;84.10
10538;DHT22;5317;49.048;8.468;2023-08-30T01:43:22;19.60;84.10
10538;DHT22;5317;49.048;8.468;2023-08-30T01:45:50;19.50;84.40
10538;DHT22;5317;49.048;8.468;2023-08-30T01:48:18;19.50;84.60
10538;DHT22;5317;49.048;8.468;2023-08-30T01:50:45;19.50;84.70
10538;DHT22;5317;49.048;8.468;2023-08-30T01:53:13;19.50;84.60
10538;DHT22;5317;49.048;8.468;2023-08-30T01:55:41;19.50;84.60
10538;DHT22;5317;49.048;8.468;2023-08-30T01:58:09;19.50;84.50
10538;DHT22;5317;49.048;8.468;2023-08-30T02:00:36;19.60;84.60
10538;DHT22;5317;49.048;8.468;2023-08-30T02:03:09;19.60;84.50
10538;DHT22;5317;49.048;8.468;2023-08-30T02:05:39;19.50;84.60
10538;DHT22;5317;49.048;8.468;2023-08-30T02:08:14;19.50;84.50
10538;DHT22;5317;49.048;8.468;2023-08-30T02:10:48;19.60;84.60
10538;DHT22;5317;49.048;8.468;2023-08-30T02:13:16;19.60;84.70
10538;DHT22;5317;49.048;8.468;2023-08-30T02:15:44;19.60;84.70
10538;DHT22;5317;49.048;8.468;2023-08-30T02:18:13;19.60;84.80
10538;DHT22;5317;49.048;8.468;2023-08-30T02:20:41;19.50;84.80
10538;DHT22;5317;49.048;8.468;2023-08-30T02:23:09;19.60;85.00
10538;DHT22;5317;49.048;8.468;2023-08-30T02:25:36;19.60;85.00
10538;DHT22;5317;49.048;8.468;2023-08-30T02:28:04;19.60;85.70
10538;DHT22;5317;49.048;8.468;2023-08-30T02:30:31;19.60;85.10
10538;DHT22;5317;49.048;8.468;2023-08-30T02:32:57;19.60;85.10
10538;DHT22;5317;49.048;8.468;2023-08-30T02:35:25;19.60;85.20
10538;DHT22;5317;49.048;8.468;2023-08-30T02:37:52;19.60;85.30
10538;DHT22;5317;49.048;8.468;2023-08-30T02:40:19;19.50;85.30
10538;DHT22;5317;49.048;8.468;2023-08-30T02:42:46;19.60;86.20
10538;DHT22;5317;49.048;8.468;2023-08-30T02:45:13;19.60;85.50
10538;DHT22;5317;49.048;8.468;2023-08-30T02:47:40;19.60;85.30
10538;DHT22;5317;49.048;8.468;2023-08-30T02:50:07;19.50;85.30
10538;DHT22;5317;49.048;8.468;2023-08-30T02:52:35;19.60;85.30
10538;DHT22;5317;49.048;8.468;2023-08-30T02:55:02;19.60;85.30
10538;DHT22;5317;49.048;8.468;2023-08-30T02:57:29;19.70;85.30
10538;DHT22;5317;49.048;8.468;2023-08-30T02:59:55;19.60;85.10
10538;DHT22;5317;49.048;8.468;2023-08-30T03:02:22;19.70;85.20
10538;DHT22;5317;49.048;8.468;2023-08-30T03:04:49;19.60;85.20
10538;DHT22;5317;49.048;8.468;2023-08-30T03:07:16;19.60;85.10
10538;DHT22;5317;49.048;8.468;2023-08-30T03:09:44;19.60;85.00
10538;DHT22;5317;49.048;8.468;2023-08-30T03:12:11;19.70;85.10
10538;DHT22;5317;49.048;8.468;2023-08-30T03:14:38;19.70;85.10
10538;DHT22;5317;49.048;8.468;2023-08-30T03:17:04;19.70;85.00
10538;DHT22;5317;49.048;8.468;2023-08-30T03:19:31;19.70;84.90
10538;DHT22;5317;49.048;8.468;2023-08-30T03:21:58;19.70;84.90
10538;DHT22;5317;49.048;8.468;2023-08-30T03:24:25;19.70;84.90
10538;DHT22;5317;49.048;8.468;2023-08-30T03:26:54;19.70;84.90
10538;DHT22;5317;49.048;8.468;2023-08-30T03:29:20;19.70;85.00
10538;DHT22;5317;49.048;8.468;2023-08-30T03:31:47;19.70;84.90
10538;DHT22;5317;49.048;8.468;2023-08-30T03:34:14;19.70;84.80
10538;DHT22;5317;49.048;8.468;2023-08-30T03:36:41;19.70;84.80
10538;DHT22;5317;49.048;8.468;2023-08-30T03:39:09;19.70;84.80
10538;DHT22;5317;49.048;8.468;2023-08-30T03:41:37;19.70;85.00
10538;DHT22;5317;49.048;8.468;2023-08-30T03:44:06;19.70;85.10
10538;DHT22;5317;49.048;8.468;2023-08-30T03:46:32;19.60;84.90
10538;DHT22;5317;49.048;8.468;2023-08-30T03:48:59;19.70;84.90
10538;DHT22;5317;49.048;8.468;2023-08-30T03:51:26;19.60;84.80
10538;DHT22;5317;49.048;8.468;2023-08-30T03:53:53;19.60;84.70
10538;DHT22;5317;49.048;8.468;2023-08-30T03:56:21;19.60;84.80
10538;DHT22;5317;49.048;8.468;2023-08-30T03:58:48;19.60;84.80
10538;DHT22;5317;49.048;8.468;2023-08-30T04:01:16;19.60;84.80
10538;DHT22;5317;49.048;8.468;2023-08-30T04:03:43;19.60;84.80
10538;DHT22;5317;49.048;8.468;2023-08-30T04:06:10;19.50;84.70
10538;DHT22;5317;49.048;8.468;2023-08-30T04:08:37;19.60;84.80
10538;DHT22;5317;49.048;8.468;2023-08-30T04:11:03;19.50;84.80
10538;DHT22;5317;49.048;8.468;2023-08-30T04:13:30;19.50;84.80
10538;DHT22;5317;49.048;8.468;2023-08-30T04:15:58;19.50;84.90
10538;DHT22;5317;49.048;8.468;2023-08-30T04:18:27;19.50;84.90
10538;DHT22;5317;49.048;8.468;2023-08-30T04:20:53;19.50;85.00
10538;DHT22;5317;49.048;8.468;2023-08-30T04:23:20;19.60;84.90
10538;DHT22;5317;49.048;8.468;2023-08-30T04:25:47;19.50;85.00
10538;DHT22;5317;49.048;8.468;2023-08-30T04:28:14;19.50;85.20
10538;DHT22;5317;49.048;8.468;2023-08-30T04:30:41;19.50;85.20
10538;DHT22;5317;49.048;8.468;2023-08-30T04:33:07;19.60;85.10
10538;DHT22;5317;49.048;8.468;2023-08-30T04:35:36;19.60;85.00
10538;DHT22;5317;49.048;8.468;2023-08-30T04:38:03;19.60;84.90
10538;DHT22;5317;49.048;8.468;2023-08-30T04:40:30;19.60;84.80
10538;DHT22;5317;49.048;8.468;2023-08-30T04:42:58;19.60;84.80
10538;DHT22;5317;49.048;8.468;2023-08-30T04:45:25;19.50;84.80
10538;DHT22;5317;49.048;8.468;2023-08-30T04:47:52;19.50;84.90
10538;DHT22;5317;49.048;8.468;2023-08-30T04:50:18;19.60;85.00
10538;DHT22;5317;49.048;8.468;2023-08-30T04:52:47;19.60;84.90
10538;DHT22;5317;49.048;8.468;2023-08-30T04:55:13;19.70;85.00
10538;DHT22;5317;49.048;8.468;2023-08-30T04:57:40;19.60;84.80
10538;DHT22;5317;49.048;8.468;2023-08-30T05:00:11;19.60;85.00
10538;DHT22;5317;49.048;8.468;2023-08-30T05:02:38;19.50;85.00
10538;DHT22;5317;49.048;8.468;2023-08-30T05:05:05;19.50;85.20
10538;DHT22;5317;49.048;8.468;2023-08-30T05:07:32;19.50;85.40
10538;DHT22;5317;49.048;8.468;2023-08-30T05:10:01;19.50;85.20
10538;DHT22;5317;49.048;8.468;2023-08-30T05:12:28;19.50;85.20
10538;DHT22;5317;49.048;8.468;2023-08-30T05:14:55;19.40;85.30
10538;DHT22;5317;49.048;8.468;2023-08-30T05:17:22;19.50;85.50
10538;DHT22;5317;49.048;8.468;2023-08-30T05:19:49;19.50;85.30
10538;DHT22;5317;49.048;8.468;2023-08-30T05:22:16;19.60;85.40
10538;DHT22;5317;49.048;8.468;2023-08-30T05:24:42;19.60;85.20
10538;DHT22;5317;49.048;8.468;2023-08-30T05:27:10;19.60;85.20
10538;DHT22;5317;49.048;8.468;2023-08-30T05:29:38;19.60;85.30
10538;DHT22;5317;49.048;8.468;2023-08-30T05:32:05;19.60;85.30
10538;DHT22;5317;49.048;8.468;2023-08-30T05:34:33;19.60;85.30
10538;DHT22;5317;49.048;8.468;2023-08-30T05:37:00;19.60;85.20
10538;DHT22;5317;49.048;8.468;2023-08-30T05:39:27;19.60;85.20
10538;DHT22;5317;49.048;8.468;2023-08-30T05:41:54;19.60;85.10
10538;DHT22;5317;49.048;8.468;2023-08-30T05:44:22;19.70;85.10
10538;DHT22;5317;49.048;8.468;2023-08-30T05:46:48;19.60;85.00
10538;DHT22;5317;49.048;8.468;2023-08-30T05:49:15;19.60;85.10
10538;DHT22;5317;49.048;8.468;2023-08-30T05:51:42;19.70;85.40
10538;DHT22;5317;49.048;8.468;2023-08-30T05:54:09;19.70;85.20
10538;DHT22;5317;49.048;8.468;2023-08-30T05:56:36;19.70;85.10
10538;DHT22;5317;49.048;8.468;2023-08-30T05:59:02;19.70;85.10
10538;DHT22;5317;49.048;8.468;2023-08-30T06:01:31;19.80;85.10
10538;DHT22;5317;49.048;8.468;2023-08-30T06:03:58;19.80;84.90
10538;DHT22;5317;49.048;8.468;2023-08-30T06:06:25;19.80;84.90
10538;DHT22;5317;49.048;8.468;2023-08-30T06:08:52;19.80;84.80
10538;DHT22;5317;49.048;8.468;2023-08-30T06:11:19;19.80;84.70
10538;DHT22;5317;49.048;8.468;2023-08-30T06:13:46;19.80;84.80
10538;DHT22;5317;49.048;8.468;2023-08-30T06:16:13;19.80;84.70
10538;DHT22;5317;49.048;8.468;2023-08-30T06:18:41;19.80;84.50
10538;DHT22;5317;49.048;8.468;2023-08-30T06:21:08;19.90;84.50
10538;DHT22;5317;49.048;8.468;2023-08-30T06:23:37;19.90;84.20
10538;DHT22;5317;49.048;8.468;2023-08-30T06:26:04;20.00;84.30
10538;DHT22;5317;49.048;8.468;2023-08-30T06:28:31;20.00;84.20
10538;DHT22;5317;49.048;8.468;2023-08-30T06:30:57;20.00;83.80
10538;DHT22;5317;49.048;8.468;2023-08-30T06:33:24;20.00;83.60
10538;DHT22;5317;49.048;8.468;2023-08-30T06:35:52;20.00;83.80
10538;DHT22;5317;49.048;8.468;2023-08-30T06:38:20;20.00;83.70
10538;DHT22;5317;49.048;8.468;2023-08-30T06:40:47;20.00;83.60
10538;DHT22;5317;49.048;8.468;2023-08-30T06:43:15;20.10;83.30
10538;DHT22;5317;49.048;8.468;2023-08-30T06:45:41;20.10;83.30
10538;DHT22;5317;49.048;8.468;2023-08-30T06:48:08;20.10;83.10
10538;DHT22;5317;49.048;8.468;2023-08-30T06:50:35;20.10;83.80
10538;DHT22;5317;49.048;8.468;2023-08-30T06:53:04;20.10;82.90
10538;DHT22;5317;49.048;8.468;2023-08-30T06:55:31;20.20;82.90
10538;DHT22;5317;49.048;8.468;2023-08-30T06:57:59;20.20;82.60
10538;DHT22;5317;49.048;8.468;2023-08-30T07:00:26;20.30;82.70
10538;DHT22;5317;49.048;8.468;2023-08-30T07:02:53;20.30;82.10
10538;DHT22;5317;49.048;8.468;2023-08-30T07:05:19;20.40;82.10
10538;DHT22;5317;49.048;8.468;2023-08-30T07:07:46;20.40;81.40
10538;DHT22;5317;49.048;8.468;2023-08-30T07:10:15;20.40;81.60
10538;DHT22;5317;49.048;8.468;2023-08-30T07:12:42;20.40;81.50
10538;DHT22;5317;49.048;8.468;2023-08-30T07:15:09;20.50;81.30
10538;DHT22;5317;49.048;8.468;2023-08-30T07:17:36;20.40;80.60
10538;DHT22;5317;49.048;8.468;2023-08-30T07:20:03;20.40;80.70
10538;DHT22;5317;49.048;8.468;2023-08-30T07:22:34;20.50;80.80
10538;DHT22;5317;49.048;8.468;2023-08-30T07:25:02;20.50;81.00
10538;DHT22;5317;49.048;8.468;2023-08-30T07:27:30;20.60;81.00
10538;DHT22;5317;49.048;8.468;2023-08-30T07:29:57;20.60;80.40
10538;DHT22;5317;49.048;8.468;2023-08-30T07:32:24;20.80;81.00
10538;DHT22;5317;49.048;8.468;2023-08-30T07:34:50;20.70;80.10
10538;DHT22;5317;49.048;8.468;2023-08-30T07:37:18;20.80;80.00
10538;DHT22;5317;49.048;8.468;2023-08-30T07:39:45;20.70;79.90
10538;DHT22;5317;49.048;8.468;2023-08-30T07:42:13;20.70;80.10
10538;DHT22;5317;49.048;8.468;2023-08-30T07:44:42;20.70;79.70
10538;DHT22;5317;49.048;8.468;2023-08-30T07:47:09;20.80;80.10
10538;DHT22;5317;49.048;8.468;2023-08-30T07:49:35;20.90;79.70
10538;DHT22;5317;49.048;8.468;2023-08-30T07:52:03;21.00;79.40
10538;DHT22;5317;49.048;8.468;2023-08-30T07:54:30;21.00;79.10
10538;DHT22;5317;49.048;8.468;2023-08-30T07:56:57;20.90;78.90
10538;DHT22;5317;49.048;8.468;2023-08-30T07:59:24;20.90;78.90
10538;DHT22;5317;49.048;8.468;2023-08-30T08:01:52;20.90;79.00
10538;DHT22;5317;49.048;8.468;2023-08-30T08:04:19;21.00;79.00
10538;DHT22;5317;49.048;8.468;2023-08-30T08:06:46;21.20;78.90
10538;DHT22;5317;49.048;8.468;2023-08-30T08:09:12;21.30;78.90
10538;DHT22;5317;49.048;8.468;2023-08-30T08:11:40;21.40;79.40
10538;DHT22;5317;49.048;8.468;2023-08-30T08:14:09;21.40;78.20
10538;DHT22;5317;49.048;8.468;2023-08-30T08:16:36;21.40;78.20
10538;DHT22;5317;49.048;8.468;2023-08-30T08:19:04;21.50;78.30
10538;DHT22;5317;49.048;8.468;2023-08-30T08:21:31;21.40;78.30
10538;DHT22;5317;49.048;8.468;2023-08-30T08:23:58;21.50;77.90
10538;DHT22;5317;49.048;8.468;2023-08-30T08:26:25;21.50;78.50
10538;DHT22;5317;49.048;8.468;2023-08-30T08:28:53;21.50;78.00
10538;DHT22;5317;49.048;8.468;2023-08-30T08:31:20;21.70;77.30
10538;DHT22;5317;49.048;8.468;2023-08-30T08:33:49;21.60;76.90
10538;DHT22;5317;49.048;8.468;2023-08-30T08:36:18;21.60;77.20
10538;DHT22;5317;49.048;8.468;2023-08-30T08:38:45;21.70;77.60
10538;DHT22;5317;49.048;8.468;2023-08-30T08:41:14;21.70;76.30
10538;DHT22;5317;49.048;8.468;2023-08-30T08:43:42;21.80;78.00
10538;DHT22;5317;49.048;8.468;2023-08-30T08:46:10;22.00;77.00
10538;DHT22;5317;49.048;8.468;2023-08-30T08:48:40;22.10;76.80
10538;DHT22;5317;49.048;8.468;2023-08-30T08:51:07;22.30;76.60
10538;DHT22;5317;49.048;8.468;2023-08-30T08:53:36;22.40;77.00
10538;DHT22;5317;49.048;8.468;2023-08-30T08:56:04;22.50;75.50
10538;DHT22;5317;49.048;8.468;2023-08-30T08:58:34;22.60;74.70
10538;DHT22;5317;49.048;8.468;2023-08-30T09:01:04;22.70;75.00
10538;DHT22;5317;49.048;8.468;2023-08-30T09:03:33;22.80;74.50
10538;DHT22;5317;49.048;8.468;2023-08-30T09:06:02;22.70;73.80
10538;DHT22;5317;49.048;8.468;2023-08-30T09:08:29;22.50;74.20
10538;DHT22;5317;49.048;8.468;2023-08-30T09:10:57;22.60;74.10
10538;DHT22;5317;49.048;8.468;2023-08-30T09:13:24;22.60;74.40
10538;DHT22;5317;49.048;8.468;2023-08-30T09:15:51;22.70;74.40
10538;DHT22;5317;49.048;8.468;2023-08-30T09:18:19;22.80;74.80
10538;DHT22;5317;49.048;8.468;2023-08-30T09:20:45;22.90;74.20
10538;DHT22;5317;49.048;8.468;2023-08-30T09:23:17;22.80;73.20
10538;DHT22;5317;49.048;8.468;2023-08-30T09:25:44;22.80;72.10
10538;DHT22;5317;49.048;8.468;2023-08-30T09:28:13;22.80;72.30
10538;DHT22;5317;49.048;8.468;2023-08-30T09:30:40;22.70;71.80
10538;DHT22;5317;49.048;8.468;2023-08-30T09:33:07;22.90;73.20
10538;DHT22;5317;49.048;8.468;2023-08-30T09:35:43;23.00;71.40
10538;DHT22;5317;49.048;8.468;2023-08-30T09:38:16;23.00;71.40
10538;DHT22;5317;49.048;8.468;2023-08-30T09:40:44;23.10;72.10
10538;DHT22;5317;49.048;8.468;2023-08-30T09:43:11;23.20;72.10
10538;DHT22;5317;49.048;8.468;2023-08-30T09:45:39;23.30;72.30
10538;DHT22;5317;49.048;8.468;2023-08-30T09:48:07;23.40;71.20
10538;DHT22;5317;49.048;8.468;2023-08-30T09:50:35;23.50;71.30
10538;DHT22;5317;49.048;8.468;2023-08-30T09:53:07;23.60;71.30
10538;DHT22;5317;49.048;8.468;2023-08-30T09:55:35;23.70;71.40
10538;DHT22;5317;49.048;8.468;2023-08-30T09:58:02;23.70;71.50
10538;DHT22;5317;49.048;8.468;2023-08-30T10:00:30;23.80;70.80
10538;DHT22;5317;49.048;8.468;2023-08-30T10:02:59;23.60;70.60
10538;DHT22;5317;49.048;8.468;2023-08-30T10:05:27;23.60;70.80
10538;DHT22;5317;49.048;8.468;2023-08-30T10:07:54;23.70;70.40
10538;DHT22;5317;49.048;8.468;2023-08-30T10:10:22;23.60;70.70
10538;DHT22;5317;49.048;8.468;2023-08-30T10:12:50;23.80;71.20
10538;DHT22;5317;49.048;8.468;2023-08-30T10:15:21;23.80;71.10
10538;DHT22;5317;49.048;8.468;2023-08-30T10:17:49;23.80;70.30
10538;DHT22;5317;49.048;8.468;2023-08-30T10:20:20;23.90;69.40
10538;DHT22;5317;49.048;8.468;2023-08-30T10:22:49;23.90;70.20
10538;DHT22;5317;49.048;8.468;2023-08-30T10:25:21;23.80;69.40
10538;DHT22;5317;49.048;8.468;2023-08-30T10:27:49;23.80;68.70
10538;DHT22;5317;49.048;8.468;2023-08-30T10:30:19;23.70;69.80
10538;DHT22;5317;49.048;8.468;2023-08-30T10:32:47;23.50;68.80
10538;DHT22;5317;49.048;8.468;2023-08-30T10:35:15;23.70;69.60
10538;DHT22;5317;49.048;8.468;2023-08-30T10:37:54;23.70;69.40
10538;DHT22;5317;49.048;8.468;2023-08-30T10:40:21;23.70;70.00
10538;DHT22;5317;49.048;8.468;2023-08-30T10:42:58;23.70;69.70
10538;DHT22;5317;49.048;8.468;2023-08-30T10:45:25;23.60;69.10
10538;DHT22;5317;49.048;8.468;2023-08-30T10:47:55;23.80;69.20
10538;DHT22;5317;49.048;8.468;2023-08-30T10:50:28;23.80;69.00
10538;DHT22;5317;49.048;8.468;2023-08-30T10:52:57;23.90;69.30
10538;DHT22;5317;49.048;8.468;2023-08-30T10:55:24;23.90;69.40
10538;DHT22;5317;49.048;8.468;2023-08-30T10:57:58;24.20;69.90
10538;DHT22;5317;49.048;8.468;2023-08-30T11:00:28;24.30;67.50
10538;DHT22;5317;49.048;8.468;2023-08-30T11:02:55;24.30;67.20
10538;DHT22;5317;49.048;8.468;2023-08-30T11:05:23;24.40;68.10
10538;DHT22;5317;49.048;8.468;2023-08-30T11:07:51;24.50;67.00
10538;DHT22;5317;49.048;8.468;2023-08-30T11:10:20;24.60;66.60
10538;DHT22;5317;49.048;8.468;2023-08-30T11:12:48;24.80;66.00
10538;DHT22;5317;49.048;8.468;2023-08-30T11:15:15;24.80;66.20
10538;DHT22;5317;49.048;8.468;2023-08-30T11:17:43;24.80;65.80
10538;DHT22;5317;49.048;8.468;2023-08-30T11:20:11;24.80;63.70
10538;DHT22;5317;49.048;8.468;2023-08-30T11:22:41;24.70;64.60
10538;DHT22;5317;49.048;8.468;2023-08-30T11:25:09;24.90;65.20
10538;DHT22;5317;49.048;8.468;2023-08-30T11:27:37;25.00;65.20
10538;DHT22;5317;49.048;8.468;2023-08-30T11:30:06;25.10;64.30
10538;DHT22;5317;49.048;8.468;2023-08-30T11:32:34;25.20;64.70
10538;DHT22;5317;49.048;8.468;2023-08-30T11:35:01;25.40;64.90
10538;DHT22;5317;49.048;8.468;2023-08-30T11:37:28;25.60;63.50
10538;DHT22;5317;49.048;8.468;2023-08-30T11:39:55;25.80;63.00
10538;DHT22;5317;49.048;8.468;2023-08-30T11:42:22;25.80;62.10
10538;DHT22;5317;49.048;8.468;2023-08-30T11:44:51;25.80;61.70
10538;DHT22;5317;49.048;8.468;2023-08-30T11:47:18;25.80;60.00
10538;DHT22;5317;49.048;8.468;2023-08-30T11:49:48;25.70;61.20
10538;DHT22;5317;49.048;8.468;2023-08-30T11:52:17;25.70;60.70
10538;DHT22;5317;49.048;8.468;2023-08-30T11:54:46;25.80;61.30
10538;DHT22;5317;49.048;8.468;2023-08-30T11:57:13;26.00;60.70
10538;DHT22;5317;49.048;8.468;2023-08-30T11:59:40;26.10;60.10
10538;DHT22;5317;49.048;8.468;2023-08-30T12:02:09;26.20;59.80
10538;DHT22;5317;49.048;8.468;2023-08-30T12:04:40;26.30;59.60
10538;DHT22;5317;49.048;8.468;2023-08-30T12:07:07;26.10;58.60
10538;DHT22;5317;49.048;8.468;2023-08-30T12:09:34;26.10;59.40
10538;DHT22;5317;49.048;8.468;2023-08-30T12:12:08;26.10;58.10
10538;DHT22;5317;49.048;8.468;2023-08-30T12:14:36;25.90;57.90
10538;DHT22;5317;49.048;8.468;2023-08-30T12:17:03;25.90;58.40
10538;DHT22;5317;49.048;8.468;2023-08-30T12:19:31;26.00;58.80
10538;DHT22;5317;49.048;8.468;2023-08-30T12:22:03;26.20;59.20
10538;DHT22;5317;49.048;8.468;2023-08-30T12:24:41;26.30;57.40
10538;DHT22;5317;49.048;8.468;2023-08-30T12:27:08;26.30;57.00
10538;DHT22;5317;49.048;8.468;2023-08-30T12:29:35;26.30;57.00
10538;DHT22;5317;49.048;8.468;2023-08-30T12:32:01;26.00;57.10
10538;DHT22;5317;49.048;8.468;2023-08-30T12:34:28;26.10;57.90
10538;DHT22;5317;49.048;8.468;2023-08-30T12:36:56;26.20;58.10
10538;DHT22;5317;49.048;8.468;2023-08-30T12:39:24;26.40;57.60
10538;DHT22;5317;49.048;8.468;2023-08-30T12:41:51;26.50;58.00
10538;DHT22;5317;49.048;8.468;2023-08-30T12:44:17;26.60;56.60
10538;DHT22;5317;49.048;8.468;2023-08-30T12:46:44;26.80;57.00
10538;DHT22;5317;49.048;8.468;2023-08-30T12:49:11;26.90;55.10
10538;DHT22;5317;49.048;8.468;2023-08-30T12:51:38;26.90;56.10
10538;DHT22;5317;49.048;8.468;2023-08-30T12:54:07;27.00;55.60
10538;DHT22;5317;49.048;8.468;2023-08-30T12:56:34;27.10;56.60
10538;DHT22;5317;49.048;8.468;2023-08-30T12:59:00;27.20;55.60
10538;DHT22;5317;49.048;8.468;2023-08-30T13:01:27;27.10;55.50
10538;DHT22;5317;49.048;8.468;2023-08-30T13:03:54;27.10;55.30
10538;DHT22;5317;49.048;8.468;2023-08-30T13:06:21;27.10;56.10
10538;DHT22;5317;49.048;8.468;2023-08-30T13:08:48;27.40;55.40
10538;DHT22;5317;49.048;8.468;2023-08-30T13:11:16;27.60;54.70
10538;DHT22;5317;49.048;8.468;2023-08-30T13:13:43;27.60;52.20
10538;DHT22;5317;49.048;8.468;2023-08-30T13:16:09;27.50;52.50
10538;DHT22;5317;49.048;8.468;2023-08-30T13:18:36;27.50;52.20
10538;DHT22;5317;49.048;8.468;2023-08-30T13:21:03;27.50;53.00
10538;DHT22;5317;49.048;8.468;2023-08-30T13:23:30;27.50;52.90
10538;DHT22;5317;49.048;8.468;2023-08-30T13:25:57;27.50;50.40
10538;DHT22;5317;49.048;8.468;2023-08-30T13:28:25;27.40;51.50
10538;DHT22;5317;49.048;8.468;2023-08-30T13:30:52;27.40;51.50
10538;DHT22;5317;49.048;8.468;2023-08-30T13:33:19;27.50;52.00
10538;DHT22;5317;49.048;8.468;2023-08-30T13:35:49;27.70;52.10
10538;DHT22;5317;49.048;8.468;2023-08-30T13:38:17;28.00;52.10
10538;DHT22;5317;49.048;8.468;2023-08-30T13:40:44;27.90;51.30
10538;DHT22;5317;49.048;8.468;2023-08-30T13:43:10;27.80;51.70
10538;DHT22;5317;49.048;8.468;2023-08-30T13:45:39;27.70;52.60
10538;DHT22;5317;49.048;8.468;2023-08-30T13:48:06;27.90;52.30
10538;DHT22;5317;49.048;8.468;2023-08-30T13:50:33;27.70;51.00
10538;DHT22;5317;49.048;8.468;2023-08-30T13:53:00;27.60;50.80
10538;DHT22;5317;49.048;8.468;2023-08-30T13:55:27;27.70;51.60
10538;DHT22;5317;49.048;8.468;2023-08-30T13:57:54;27.90;52.20
10538;DHT22;5317;49.048;8.468;2023-08-30T14:00:21;28.00;52.20
10538;DHT22;5317;49.048;8.468;2023-08-30T14:02:49;28.00;52.10
10538;DHT22;5317;49.048;8.468;2023-08-30T14:05:17;28.00;51.60
10538;DHT22;5317;49.048;8.468;2023-08-30T14:07:44;27.90;51.50
10538;DHT22;5317;49.048;8.468;2023-08-30T14:10:11;27.80;51.80
10538;DHT22;5317;49.048;8.468;2023-08-30T14:12:43;27.60;52.30
10538;DHT22;5317;49.048;8.468;2023-08-30T14:15:10;27.70;52.30
10538;DHT22;5317;49.048;8.468;2023-08-30T14:17:38;27.60;51.90
10538;DHT22;5317;49.048;8.468;2023-08-30T14:20:07;27.40;51.60
10538;DHT22;5317;49.048;8.468;2023-08-30T14:22:34;27.10;52.40
10538;DHT22;5317;49.048;8.468;2023-08-30T14:25:02;27.10;52.40
10538;DHT22;5317;49.048;8.468;2023-08-30T14:27:30;27.10;52.80
10538;DHT22;5317;49.048;8.468;2023-08-30T14:29:57;27.20;52.80
10538;DHT22;5317;49.048;8.468;2023-08-30T14:32:25;27.20;52.60
10538;DHT22;5317;49.048;8.468;2023-08-30T14:34:52;27.30;52.90
10538;DHT22;5317;49.048;8.468;2023-08-30T14:37:20;27.40;52.60
10538;DHT22;5317;49.048;8.468;2023-08-30T14:39:47;27.60;52.60
10538;DHT22;5317;49.048;8.468;2023-08-30T14:42:14;27.70;51.60
10538;DHT22;5317;49.048;8.468;2023-08-30T14:44:41;27.70;51.40
10538;DHT22;5317;49.048;8.468;2023-08-30T14:47:08;27.80;51.40
10538;DHT22;5317;49.048;8.468;2023-08-30T14:49:35;27.90;51.50
10538;DHT22;5317;49.048;8.468;2023-08-30T14:52:02;27.90;51.60
10538;DHT22;5317;49.048;8.468;2023-08-30T14:54:30;27.90;51.00
10538;DHT22;5317;49.048;8.468;2023-08-30T14:56:57;27.70;51.00
10538;DHT22;5317;49.048;8.468;2023-08-30T14:59:24;27.60;51.50
10538;DHT22;5317;49.048;8.468;2023-08-30T15:01:51;27.50;51.40
10538;DHT22;5317;49.048;8.468;2023-08-30T15:04:17;27.60;51.70
10538;DHT22;5317;49.048;8.468;2023-08-30T15:06:44;27.80;51.60
10538;DHT22;5317;49.048;8.468;2023-08-30T15:09:11;27.90;52.40
10538;DHT22;5317;49.048;8.468;2023-08-30T15:11:43;28.00;51.80
10538;DHT22;5317;49.048;8.468;2023-08-30T15:14:10;28.00;51.60
10538;DHT22;5317;49.048;8.468;2023-08-30T15:16:37;28.00;51.40
10538;DHT22;5317;49.048;8.468;2023-08-30T15:19:04;28.10;51.70
10538;DHT22;5317;49.048;8.468;2023-08-30T15:21:31;28.10;50.80
10538;DHT22;5317;49.048;8.468;2023-08-30T15:23:58;28.20;50.90
10538;DHT22;5317;49.048;8.468;2023-08-30T15:26:24;28.10;50.70
10538;DHT22;5317;49.048;8.468;2023-08-30T15:28:53;28.00;50.50
10538;DHT22;5317;49.048;8.468;2023-08-30T15:31:20;27.90;50.70
10538;DHT22;5317;49.048;8.468;2023-08-30T15:33:47;27.90;50.60
10538;DHT22;5317;49.048;8.468;2023-08-30T15:36:14;27.90;51.10
10538;DHT22;5317;49.048;8.468;2023-08-30T15:38:40;28.00;50.70
10538;DHT22;5317;49.048;8.468;2023-08-30T15:41:11;27.90;50.40
10538;DHT22;5317;49.048;8.468;2023-08-30T15:43:39;27.90;50.40
10538;DHT22;5317;49.048;8.468;2023-08-30T15:46:07;27.70;51.10
10538;DHT22;5317;49.048;8.468;2023-08-30T15:48:35;27.70;51.60